SWA603 KBWI-KSDF
Flight info
| Callsign | SWA603 |
|---|---|
| Flight time | 1h 27m |
| Altitude | 36000 |
| Route | FOXHL1 OTTTO Q68 YOCKY LEDDL1 |
| Aircraft | B738/M-SDE2E3FGHIRWXY/LB1 |
Departure
| Time | 2026-05-03 21:07 |
|---|---|
| Airport | Baltimore/Washington International Thurgood Marshall Airport (KBWI) |
Arrival
| Time | 2026-05-03 22:35 |
|---|---|
| Airport | Louisville Muhammad Ali International Airport (KSDF) |
| Time | Latitude | Longitude | Altitude | Speed | Heading |
|---|---|---|---|---|---|
| 2026-05-03 20:33 | 39.17973 | -76.66464 | 154 ft | 0 kts | 296° |
| 2026-05-03 20:58 | 39.17967 | -76.66450 | 154 ft | 2 kts | 296° |
| 2026-05-03 20:58 | 39.17960 | -76.66431 | 154 ft | 2 kts | 296° |
| 2026-05-03 20:58 | 39.17954 | -76.66413 | 154 ft | 1 kts | 296° |
| 2026-05-03 20:59 | 39.17954 | -76.66414 | 162 ft | 1 kts | 304° |
| 2026-05-03 20:59 | 39.17967 | -76.66408 | 157 ft | 3 kts | 41° |
| 2026-05-03 20:59 | 39.17962 | -76.66385 | 152 ft | 3 kts | 125° |
| 2026-05-03 20:59 | 39.17942 | -76.66360 | 154 ft | 0 kts | 139° |
| 2026-05-03 21:01 | 39.17935 | -76.66353 | 154 ft | 0 kts | 139° |
| 2026-05-03 21:01 | 39.17909 | -76.66341 | 154 ft | 13 kts | 179° |
| 2026-05-03 21:01 | 39.17790 | -76.66308 | 153 ft | 23 kts | 138° |
| 2026-05-03 21:02 | 39.17698 | -76.66091 | 148 ft | 32 kts | 116° |
| 2026-05-03 21:02 | 39.17592 | -76.65825 | 143 ft | 34 kts | 117° |
| 2026-05-03 21:02 | 39.17471 | -76.65662 | 141 ft | 22 kts | 156° |
| 2026-05-03 21:02 | 39.17390 | -76.65524 | 140 ft | 9 kts | 165° |
| 2026-05-03 21:03 | 39.17375 | -76.65524 | 140 ft | 0 kts | 185° |
| 2026-05-03 21:06 | 39.17356 | -76.65526 | 140 ft | 14 kts | 184° |
| 2026-05-03 21:06 | 39.17281 | -76.65613 | 139 ft | 15 kts | 273° |
| 2026-05-03 21:06 | 39.17282 | -76.65634 | 139 ft | 0 kts | 274° |
| 2026-05-03 21:06 | 39.17294 | -76.65829 | 142 ft | 63 kts | 274° |
| 2026-05-03 21:07 | 39.17347 | -76.66745 | 152 ft | 142 kts | 274° |
| 2026-05-03 21:07 | 39.17435 | -76.68200 | 626 ft | 179 kts | 275° |
| 2026-05-03 21:07 | 39.17529 | -76.69949 | 1330 ft | 204 kts | 276° |
| 2026-05-03 21:07 | 39.17634 | -76.71825 | 2026 ft | 216 kts | 276° |
| 2026-05-03 21:08 | 39.17737 | -76.73821 | 2689 ft | 226 kts | 275° |
| 2026-05-03 21:08 | 39.17851 | -76.75852 | 3323 ft | 230 kts | 280° |
| 2026-05-03 21:08 | 39.18220 | -76.77842 | 4119 ft | 232 kts | 286° |
| 2026-05-03 21:08 | 39.18640 | -76.79864 | 4894 ft | 233 kts | 285° |
| 2026-05-03 21:09 | 39.19049 | -76.81912 | 5713 ft | 237 kts | 285° |
| 2026-05-03 21:09 | 39.19460 | -76.83988 | 6478 ft | 238 kts | 285° |
| 2026-05-03 21:09 | 39.19864 | -76.86039 | 7235 ft | 237 kts | 285° |
| 2026-05-03 21:09 | 39.20269 | -76.88108 | 7979 ft | 238 kts | 286° |
| 2026-05-03 21:10 | 39.20675 | -76.90185 | 8780 ft | 240 kts | 287° |
| 2026-05-03 21:10 | 39.21085 | -76.92293 | 9592 ft | 244 kts | 287° |
| 2026-05-03 21:10 | 39.21495 | -76.94402 | 10353 ft | 246 kts | 287° |
| 2026-05-03 21:10 | 39.21912 | -76.96565 | 11091 ft | 249 kts | 285° |
| 2026-05-03 21:11 | 39.22130 | -76.98818 | 11580 ft | 266 kts | 275° |
| 2026-05-03 21:11 | 39.22143 | -77.01328 | 11830 ft | 287 kts | 272° |
| 2026-05-03 21:11 | 39.22137 | -77.04003 | 12104 ft | 307 kts | 273° |
| 2026-05-03 21:11 | 39.22153 | -77.06792 | 12386 ft | 324 kts | 273° |
| 2026-05-03 21:12 | 39.22187 | -77.09792 | 12662 ft | 341 kts | 273° |
| 2026-05-03 21:12 | 39.21916 | -77.12913 | 13044 ft | 359 kts | 256° |
| 2026-05-03 21:12 | 39.20801 | -77.15813 | 13685 ft | 371 kts | 238° |
| 2026-05-03 21:12 | 39.19019 | -77.18336 | 14205 ft | 382 kts | 229° |
| 2026-05-03 21:13 | 39.17124 | -77.20751 | 14717 ft | 388 kts | 230° |
| 2026-05-03 21:13 | 39.15227 | -77.23206 | 15206 ft | 391 kts | 230° |
| 2026-05-03 21:13 | 39.13311 | -77.25704 | 15711 ft | 391 kts | 230° |
| 2026-05-03 21:13 | 39.11398 | -77.28215 | 16224 ft | 390 kts | 230° |
| 2026-05-03 21:14 | 39.09517 | -77.30692 | 16743 ft | 390 kts | 230° |
| 2026-05-03 21:14 | 39.07612 | -77.33201 | 17271 ft | 390 kts | 230° |
| 2026-05-03 21:14 | 39.05729 | -77.35722 | 17791 ft | 389 kts | 234° |
| 2026-05-03 21:14 | 39.04313 | -77.38644 | 18202 ft | 383 kts | 252° |
| 2026-05-03 21:15 | 39.03546 | -77.41889 | 18861 ft | 378 kts | 257° |
| 2026-05-03 21:15 | 39.02831 | -77.45138 | 19286 ft | 383 kts | 257° |
| 2026-05-03 21:15 | 39.02094 | -77.48440 | 19795 ft | 384 kts | 257° |
| 2026-05-03 21:15 | 39.01350 | -77.51748 | 20293 ft | 386 kts | 257° |
| 2026-05-03 21:16 | 39.00597 | -77.55072 | 20811 ft | 388 kts | 257° |
| 2026-05-03 21:16 | 39.00093 | -77.57282 | 21148 ft | 388 kts | 257° |
| 2026-05-03 21:16 | 38.99327 | -77.60637 | 21678 ft | 389 kts | 257° |
| 2026-05-03 21:16 | 38.98561 | -77.63978 | 22207 ft | 389 kts | 258° |
| 2026-05-03 21:17 | 38.97794 | -77.67313 | 22748 ft | 389 kts | 258° |
| 2026-05-03 21:17 | 38.97024 | -77.70656 | 23309 ft | 389 kts | 258° |
| 2026-05-03 21:17 | 38.96263 | -77.73955 | 23823 ft | 388 kts | 258° |
| 2026-05-03 21:17 | 38.95494 | -77.77285 | 24294 ft | 388 kts | 258° |
| 2026-05-03 21:18 | 38.94727 | -77.80603 | 24778 ft | 387 kts | 258° |
| 2026-05-03 21:18 | 38.93957 | -77.83931 | 25263 ft | 385 kts | 258° |
| 2026-05-03 21:18 | 38.93203 | -77.87182 | 25748 ft | 384 kts | 258° |
| 2026-05-03 21:18 | 38.92438 | -77.90476 | 26240 ft | 382 kts | 258° |
| 2026-05-03 21:19 | 38.91684 | -77.93719 | 26743 ft | 380 kts | 258° |
| 2026-05-03 21:19 | 38.90924 | -77.96986 | 27099 ft | 382 kts | 258° |
| 2026-05-03 21:19 | 38.90157 | -78.00288 | 27329 ft | 386 kts | 258° |
| 2026-05-03 21:19 | 38.89393 | -78.03567 | 27599 ft | 389 kts | 258° |
| 2026-05-03 21:20 | 38.88611 | -78.06915 | 27859 ft | 392 kts | 258° |
| 2026-05-03 21:20 | 38.87824 | -78.10276 | 28126 ft | 395 kts | 258° |
| 2026-05-03 21:20 | 38.87028 | -78.13674 | 28401 ft | 397 kts | 258° |
| 2026-05-03 21:20 | 38.86228 | -78.17080 | 28674 ft | 399 kts | 258° |
| 2026-05-03 21:21 | 38.85482 | -78.20521 | 28934 ft | 398 kts | 263° |
| 2026-05-03 21:21 | 38.85322 | -78.24054 | 29158 ft | 395 kts | 275° |
| 2026-05-03 21:21 | 38.85453 | -78.27563 | 29518 ft | 396 kts | 273° |
| 2026-05-03 21:21 | 38.85453 | -78.31064 | 29791 ft | 396 kts | 271° |
| 2026-05-03 21:22 | 38.85425 | -78.34599 | 30063 ft | 396 kts | 271° |
| 2026-05-03 21:22 | 38.85266 | -78.38156 | 30279 ft | 397 kts | 266° |
| 2026-05-03 21:22 | 38.84745 | -78.41644 | 30559 ft | 399 kts | 261° |
| 2026-05-03 21:22 | 38.84130 | -78.45086 | 30814 ft | 398 kts | 262° |
| 2026-05-03 21:23 | 38.83543 | -78.48566 | 31072 ft | 397 kts | 262° |
| 2026-05-03 21:23 | 38.82973 | -78.52023 | 31327 ft | 397 kts | 262° |
| 2026-05-03 21:23 | 38.82405 | -78.55487 | 31565 ft | 396 kts | 262° |
| 2026-05-03 21:23 | 38.81845 | -78.58902 | 31822 ft | 395 kts | 262° |
| 2026-05-03 21:24 | 38.81277 | -78.62346 | 32070 ft | 393 kts | 262° |
| 2026-05-03 21:24 | 38.80709 | -78.65775 | 32330 ft | 392 kts | 262° |
| 2026-05-03 21:24 | 38.80141 | -78.69192 | 32598 ft | 391 kts | 262° |
| 2026-05-03 21:24 | 38.79573 | -78.72595 | 32858 ft | 389 kts | 262° |
| 2026-05-03 21:25 | 38.79011 | -78.75960 | 33114 ft | 388 kts | 262° |
| 2026-05-03 21:25 | 38.78444 | -78.79343 | 33381 ft | 387 kts | 262° |
| 2026-05-03 21:25 | 38.77876 | -78.82724 | 33654 ft | 385 kts | 262° |
| 2026-05-03 21:25 | 38.77321 | -78.86031 | 33912 ft | 383 kts | 262° |
| 2026-05-03 21:26 | 38.76759 | -78.89365 | 34187 ft | 381 kts | 262° |
| 2026-05-03 21:26 | 38.76200 | -78.92680 | 34411 ft | 381 kts | 262° |
| 2026-05-03 21:26 | 38.75636 | -78.96017 | 34643 ft | 380 kts | 262° |
| 2026-05-03 21:26 | 38.75076 | -78.99325 | 34866 ft | 380 kts | 262° |
| 2026-05-03 21:27 | 38.74516 | -79.02629 | 35095 ft | 380 kts | 261° |
| 2026-05-03 21:27 | 38.73961 | -79.05898 | 35326 ft | 379 kts | 261° |
| 2026-05-03 21:27 | 38.73398 | -79.09201 | 35548 ft | 378 kts | 261° |
| 2026-05-03 21:27 | 38.72836 | -79.12498 | 35810 ft | 377 kts | 261° |
| 2026-05-03 21:28 | 38.72281 | -79.15750 | 36032 ft | 376 kts | 261° |
| 2026-05-03 21:28 | 38.71716 | -79.19063 | 36069 ft | 381 kts | 261° |
| 2026-05-03 21:28 | 38.70575 | -79.25728 | 36100 ft | 389 kts | 261° |
| 2026-05-03 21:29 | 38.69451 | -79.32588 | 36095 ft | 396 kts | 261° |
| 2026-05-03 21:29 | 38.68325 | -79.39509 | 36071 ft | 398 kts | 261° |
| 2026-05-03 21:30 | 38.67195 | -79.46393 | 36088 ft | 394 kts | 261° |
| 2026-05-03 21:30 | 38.66064 | -79.53248 | 36098 ft | 389 kts | 261° |
| 2026-05-03 21:31 | 38.64946 | -79.59995 | 36101 ft | 386 kts | 261° |
| 2026-05-03 21:31 | 38.63831 | -79.66709 | 36106 ft | 385 kts | 261° |
| 2026-05-03 21:32 | 38.62689 | -79.73359 | 36100 ft | 385 kts | 260° |
| 2026-05-03 21:32 | 38.61464 | -79.80067 | 36104 ft | 387 kts | 260° |
| 2026-05-03 21:33 | 38.60239 | -79.86765 | 36105 ft | 387 kts | 260° |
| 2026-05-03 21:33 | 38.59015 | -79.93471 | 36101 ft | 389 kts | 260° |
| 2026-05-03 21:34 | 38.57782 | -80.00226 | 36117 ft | 390 kts | 260° |
| 2026-05-03 21:34 | 38.56548 | -80.06955 | 36125 ft | 390 kts | 260° |
| 2026-05-03 21:35 | 38.55578 | -80.13773 | 36162 ft | 387 kts | 268° |
| 2026-05-03 21:35 | 38.55554 | -80.17224 | 36055 ft | 388 kts | 275° |
| 2026-05-03 21:35 | 38.55789 | -80.20615 | 36222 ft | 385 kts | 275° |
| 2026-05-03 21:36 | 38.56156 | -80.27491 | 36113 ft | 388 kts | 274° |
| 2026-05-03 21:36 | 38.56487 | -80.34325 | 36088 ft | 388 kts | 274° |
| 2026-05-03 21:37 | 38.56825 | -80.41201 | 36124 ft | 386 kts | 274° |
| 2026-05-03 21:37 | 38.57165 | -80.48064 | 36127 ft | 386 kts | 274° |
| 2026-05-03 21:38 | 38.57500 | -80.54879 | 36117 ft | 387 kts | 274° |
| 2026-05-03 21:38 | 38.57529 | -80.61779 | 36095 ft | 388 kts | 265° |
| 2026-05-03 21:39 | 38.56383 | -80.68548 | 36149 ft | 389 kts | 259° |
| 2026-05-03 21:39 | 38.55065 | -80.75279 | 36130 ft | 389 kts | 259° |
| 2026-05-03 21:40 | 38.53775 | -80.81979 | 36104 ft | 390 kts | 259° |
| 2026-05-03 21:40 | 38.52479 | -80.88698 | 36085 ft | 390 kts | 259° |
| 2026-05-03 21:41 | 38.51178 | -80.95408 | 36078 ft | 390 kts | 259° |
| 2026-05-03 21:41 | 38.49875 | -81.02102 | 36095 ft | 390 kts | 259° |
| 2026-05-03 21:42 | 38.48564 | -81.08811 | 36086 ft | 390 kts | 259° |
| 2026-05-03 21:42 | 38.47251 | -81.15512 | 36085 ft | 390 kts | 259° |
| 2026-05-03 21:43 | 38.45930 | -81.22228 | 36080 ft | 390 kts | 259° |
| 2026-05-03 21:43 | 38.44601 | -81.28961 | 36071 ft | 390 kts | 259° |
| 2026-05-03 21:44 | 38.43272 | -81.35677 | 36080 ft | 391 kts | 259° |
| 2026-05-03 21:44 | 38.41947 | -81.42349 | 36084 ft | 391 kts | 259° |
| 2026-05-03 21:45 | 38.40603 | -81.49095 | 36073 ft | 391 kts | 259° |
| 2026-05-03 21:45 | 38.39263 | -81.55799 | 36060 ft | 392 kts | 259° |
| 2026-05-03 21:46 | 38.37917 | -81.62515 | 36077 ft | 392 kts | 259° |
| 2026-05-03 21:46 | 38.36560 | -81.69265 | 36066 ft | 393 kts | 259° |
| 2026-05-03 21:47 | 38.35199 | -81.76010 | 36071 ft | 393 kts | 259° |
| 2026-05-03 21:47 | 38.33502 | -81.82625 | 36094 ft | 395 kts | 254° |
| 2026-05-03 21:48 | 38.31607 | -81.89202 | 36091 ft | 396 kts | 254° |
| 2026-05-03 21:48 | 38.29716 | -81.95815 | 36082 ft | 397 kts | 254° |
| 2026-05-03 21:49 | 38.27854 | -82.02390 | 36080 ft | 397 kts | 254° |
| 2026-05-03 21:49 | 38.25987 | -82.08987 | 36085 ft | 398 kts | 254° |
| 2026-05-03 21:50 | 38.24109 | -82.15610 | 36094 ft | 398 kts | 254° |
| 2026-05-03 21:50 | 38.22219 | -82.22259 | 36102 ft | 399 kts | 254° |
| 2026-05-03 21:51 | 38.20329 | -82.28895 | 36095 ft | 399 kts | 254° |
| 2026-05-03 21:51 | 38.18434 | -82.35528 | 36068 ft | 400 kts | 254° |
| 2026-05-03 21:52 | 38.16540 | -82.42163 | 36061 ft | 400 kts | 254° |
| 2026-05-03 21:52 | 38.14649 | -82.48777 | 36072 ft | 401 kts | 254° |
| 2026-05-03 21:53 | 38.12739 | -82.55440 | 36083 ft | 400 kts | 254° |
| 2026-05-03 21:53 | 38.10829 | -82.62090 | 36094 ft | 401 kts | 254° |
| 2026-05-03 21:54 | 38.08922 | -82.68712 | 36099 ft | 400 kts | 253° |
| 2026-05-03 21:54 | 38.07005 | -82.75348 | 36103 ft | 401 kts | 253° |
| 2026-05-03 21:55 | 38.05081 | -82.81997 | 36096 ft | 401 kts | 253° |
| 2026-05-03 21:55 | 38.03160 | -82.88617 | 36087 ft | 401 kts | 253° |
| 2026-05-03 21:56 | 38.01219 | -82.95287 | 36087 ft | 402 kts | 253° |
| 2026-05-03 21:56 | 37.99288 | -83.01911 | 36101 ft | 401 kts | 253° |
| 2026-05-03 21:57 | 37.97354 | -83.08527 | 36115 ft | 401 kts | 253° |
| 2026-05-03 21:57 | 37.96384 | -83.11840 | 35708 ft | 403 kts | 253° |
| 2026-05-03 21:57 | 37.95403 | -83.15188 | 35142 ft | 402 kts | 253° |
| 2026-05-03 21:58 | 37.94441 | -83.18457 | 34767 ft | 398 kts | 254° |
| 2026-05-03 21:58 | 37.93470 | -83.21760 | 34213 ft | 399 kts | 254° |
| 2026-05-03 21:58 | 37.92503 | -83.25043 | 33726 ft | 396 kts | 254° |
| 2026-05-03 21:58 | 37.91545 | -83.28295 | 33154 ft | 396 kts | 254° |
| 2026-05-03 21:59 | 37.90584 | -83.31558 | 32632 ft | 396 kts | 254° |
| 2026-05-03 21:59 | 37.89610 | -83.34860 | 32120 ft | 401 kts | 254° |
| 2026-05-03 21:59 | 37.88625 | -83.38201 | 31600 ft | 406 kts | 254° |
| 2026-05-03 21:59 | 37.87628 | -83.41574 | 31101 ft | 411 kts | 254° |
| 2026-05-03 22:00 | 37.86631 | -83.44936 | 30616 ft | 413 kts | 254° |
| 2026-05-03 22:00 | 37.85614 | -83.48363 | 30112 ft | 415 kts | 254° |
| 2026-05-03 22:00 | 37.84592 | -83.51798 | 29544 ft | 417 kts | 254° |
| 2026-05-03 22:00 | 37.83568 | -83.55238 | 28992 ft | 419 kts | 253° |
| 2026-05-03 22:01 | 37.82547 | -83.58666 | 28447 ft | 421 kts | 253° |
| 2026-05-03 22:01 | 37.81509 | -83.62143 | 27914 ft | 423 kts | 253° |
| 2026-05-03 22:01 | 37.80466 | -83.65635 | 27386 ft | 425 kts | 253° |
| 2026-05-03 22:01 | 37.79423 | -83.69125 | 26875 ft | 427 kts | 253° |
| 2026-05-03 22:02 | 37.78371 | -83.72638 | 26370 ft | 430 kts | 253° |
| 2026-05-03 22:02 | 37.77314 | -83.76166 | 26113 ft | 431 kts | 253° |
| 2026-05-03 22:02 | 37.76260 | -83.79669 | 26202 ft | 425 kts | 253° |
| 2026-05-03 22:02 | 37.75202 | -83.83185 | 26094 ft | 425 kts | 253° |
| 2026-05-03 22:03 | 37.74152 | -83.86672 | 26157 ft | 421 kts | 253° |
| 2026-05-03 22:03 | 37.73117 | -83.90108 | 26084 ft | 420 kts | 253° |
| 2026-05-03 22:03 | 37.72085 | -83.93529 | 26125 ft | 417 kts | 253° |
| 2026-05-03 22:03 | 37.71045 | -83.96973 | 26100 ft | 416 kts | 253° |
| 2026-05-03 22:04 | 37.70020 | -84.00363 | 26117 ft | 415 kts | 253° |
| 2026-05-03 22:04 | 37.68987 | -84.03776 | 26094 ft | 414 kts | 253° |
| 2026-05-03 22:04 | 37.67970 | -84.07133 | 26108 ft | 413 kts | 253° |
| 2026-05-03 22:04 | 37.66944 | -84.10518 | 26089 ft | 412 kts | 253° |
| 2026-05-03 22:05 | 37.66261 | -84.12764 | 26079 ft | 412 kts | 253° |
| 2026-05-03 22:05 | 37.64883 | -84.17349 | 25271 ft | 428 kts | 254° |
| 2026-05-03 22:05 | 37.64230 | -84.19736 | 25041 ft | 431 kts | 255° |
| 2026-05-03 22:05 | 37.62992 | -84.24572 | 24361 ft | 436 kts | 256° |
| 2026-05-03 22:06 | 37.62386 | -84.26994 | 24092 ft | 433 kts | 256° |
| 2026-05-03 22:06 | 37.61474 | -84.30621 | 23594 ft | 431 kts | 256° |
| 2026-05-03 22:06 | 37.60559 | -84.34226 | 23039 ft | 429 kts | 256° |
| 2026-05-03 22:06 | 37.59652 | -84.37761 | 22510 ft | 427 kts | 256° |
| 2026-05-03 22:07 | 37.58733 | -84.41313 | 21978 ft | 424 kts | 255° |
| 2026-05-03 22:07 | 37.57809 | -84.44860 | 21448 ft | 420 kts | 255° |
| 2026-05-03 22:07 | 37.56898 | -84.48352 | 20926 ft | 417 kts | 255° |
| 2026-05-03 22:07 | 37.55998 | -84.51795 | 20282 ft | 416 kts | 255° |
| 2026-05-03 22:08 | 37.55107 | -84.55197 | 19679 ft | 407 kts | 255° |
| 2026-05-03 22:08 | 37.54217 | -84.58589 | 19068 ft | 403 kts | 255° |
| 2026-05-03 22:08 | 37.53334 | -84.61956 | 18472 ft | 402 kts | 255° |
| 2026-05-03 22:08 | 37.52468 | -84.65257 | 17820 ft | 400 kts | 255° |
| 2026-05-03 22:09 | 37.51595 | -84.68580 | 17157 ft | 398 kts | 255° |
| 2026-05-03 22:09 | 37.50721 | -84.71898 | 16508 ft | 396 kts | 255° |
| 2026-05-03 22:09 | 37.49854 | -84.75189 | 15869 ft | 393 kts | 255° |
| 2026-05-03 22:10 | 37.48146 | -84.81657 | 14638 ft | 387 kts | 255° |
| 2026-05-03 22:10 | 37.47311 | -84.84813 | 14182 ft | 383 kts | 255° |
| 2026-05-03 22:10 | 37.46530 | -84.88026 | 14107 ft | 380 kts | 261° |
| 2026-05-03 22:10 | 37.46503 | -84.91297 | 14028 ft | 370 kts | 283° |
| 2026-05-03 22:11 | 37.47285 | -84.94387 | 14005 ft | 373 kts | 295° |
| 2026-05-03 22:11 | 37.48608 | -84.97198 | 14006 ft | 374 kts | 307° |
| 2026-05-03 22:11 | 37.50462 | -84.99431 | 14085 ft | 373 kts | 319° |
| 2026-05-03 22:11 | 37.52514 | -85.01462 | 13984 ft | 378 kts | 319° |
| 2026-05-03 22:12 | 37.54580 | -85.03511 | 14019 ft | 378 kts | 319° |
| 2026-05-03 22:12 | 37.56652 | -85.05551 | 14022 ft | 370 kts | 319° |
| 2026-05-03 22:12 | 37.58611 | -85.07470 | 13992 ft | 341 kts | 320° |
| 2026-05-03 22:12 | 37.60413 | -85.09250 | 13993 ft | 317 kts | 320° |
| 2026-05-03 22:13 | 37.62126 | -85.10914 | 14008 ft | 311 kts | 318° |
| 2026-05-03 22:13 | 37.63846 | -85.12536 | 14000 ft | 310 kts | 319° |
| 2026-05-03 22:13 | 37.65532 | -85.14218 | 14009 ft | 310 kts | 322° |
| 2026-05-03 22:13 | 37.67352 | -85.15706 | 13983 ft | 313 kts | 330° |
| 2026-05-03 22:14 | 37.69510 | -85.16313 | 13893 ft | 325 kts | 353° |
| 2026-05-03 22:14 | 37.71783 | -85.16290 | 13356 ft | 328 kts | 355° |
| 2026-05-03 22:14 | 37.74032 | -85.16235 | 12840 ft | 323 kts | 355° |
| 2026-05-03 22:14 | 37.76274 | -85.16173 | 12323 ft | 319 kts | 355° |
| 2026-05-03 22:15 | 37.78488 | -85.16106 | 11814 ft | 316 kts | 355° |
| 2026-05-03 22:15 | 37.80678 | -85.16043 | 11312 ft | 312 kts | 354° |
| 2026-05-03 22:15 | 37.82826 | -85.16070 | 10731 ft | 310 kts | 353° |
| 2026-05-03 22:15 | 37.84895 | -85.16236 | 10787 ft | 281 kts | 347° |
| 2026-05-03 22:16 | 37.86752 | -85.16573 | 10682 ft | 262 kts | 345° |
| 2026-05-03 22:16 | 37.88513 | -85.17000 | 10268 ft | 251 kts | 341° |
| 2026-05-03 22:16 | 37.90198 | -85.17481 | 9918 ft | 244 kts | 341° |
| 2026-05-03 22:16 | 37.91848 | -85.17961 | 9519 ft | 247 kts | 341° |
| 2026-05-03 22:17 | 37.93471 | -85.18672 | 9067 ft | 245 kts | 324° |
| 2026-05-03 22:17 | 37.94855 | -85.19872 | 8709 ft | 239 kts | 319° |
| 2026-05-03 22:17 | 37.96153 | -85.21132 | 8316 ft | 235 kts | 317° |
| 2026-05-03 22:17 | 37.97421 | -85.22444 | 7938 ft | 235 kts | 317° |
| 2026-05-03 22:18 | 37.98684 | -85.23771 | 7564 ft | 235 kts | 317° |
| 2026-05-03 22:18 | 37.99932 | -85.25096 | 7192 ft | 236 kts | 317° |
| 2026-05-03 22:18 | 38.01192 | -85.26446 | 6828 ft | 237 kts | 317° |
| 2026-05-03 22:18 | 38.02460 | -85.27815 | 6457 ft | 238 kts | 316° |
| 2026-05-03 22:19 | 38.03713 | -85.29171 | 6073 ft | 239 kts | 317° |
| 2026-05-03 22:19 | 38.04977 | -85.30544 | 6050 ft | 239 kts | 316° |
| 2026-05-03 22:19 | 38.06257 | -85.31939 | 6012 ft | 248 kts | 316° |
| 2026-05-03 22:19 | 38.07573 | -85.33380 | 6001 ft | 250 kts | 316° |
| 2026-05-03 22:20 | 38.08889 | -85.34820 | 5851 ft | 252 kts | 316° |
| 2026-05-03 22:20 | 38.10230 | -85.36287 | 5463 ft | 251 kts | 316° |
| 2026-05-03 22:20 | 38.11528 | -85.37745 | 5067 ft | 249 kts | 315° |
| 2026-05-03 22:20 | 38.12802 | -85.39220 | 4693 ft | 249 kts | 315° |
| 2026-05-03 22:21 | 38.14086 | -85.40729 | 4303 ft | 252 kts | 314° |
| 2026-05-03 22:21 | 38.15366 | -85.42266 | 3912 ft | 252 kts | 314° |
| 2026-05-03 22:21 | 38.16623 | -85.43780 | 3557 ft | 250 kts | 314° |
| 2026-05-03 22:21 | 38.17877 | -85.45309 | 3159 ft | 248 kts | 312° |
| 2026-05-03 22:22 | 38.19071 | -85.46875 | 3016 ft | 245 kts | 311° |
| 2026-05-03 22:22 | 38.20249 | -85.48452 | 2997 ft | 246 kts | 310° |
| 2026-05-03 22:22 | 38.21395 | -85.49991 | 2994 ft | 236 kts | 311° |
| 2026-05-03 22:22 | 38.22434 | -85.51585 | 2986 ft | 233 kts | 308° |
| 2026-05-03 22:23 | 38.23651 | -85.52996 | 3022 ft | 238 kts | 317° |
| 2026-05-03 22:23 | 38.24893 | -85.54357 | 3015 ft | 237 kts | 315° |
| 2026-05-03 22:23 | 38.26137 | -85.55774 | 2977 ft | 241 kts | 315° |
| 2026-05-03 22:23 | 38.27380 | -85.57209 | 2999 ft | 240 kts | 315° |
| 2026-05-03 22:24 | 38.28611 | -85.58626 | 2993 ft | 240 kts | 315° |
| 2026-05-03 22:24 | 38.29851 | -85.60028 | 2991 ft | 238 kts | 316° |
| 2026-05-03 22:24 | 38.31088 | -85.61412 | 2999 ft | 237 kts | 316° |
| 2026-05-03 22:24 | 38.32328 | -85.62792 | 2969 ft | 237 kts | 316° |
| 2026-05-03 22:25 | 38.33580 | -85.64159 | 2970 ft | 234 kts | 316° |
| 2026-05-03 22:25 | 38.34758 | -85.65559 | 2942 ft | 227 kts | 304° |
| 2026-05-03 22:25 | 38.35264 | -85.67329 | 2994 ft | 212 kts | 270° |
| 2026-05-03 22:25 | 38.35022 | -85.69119 | 3022 ft | 204 kts | 253° |
| 2026-05-03 22:26 | 38.34661 | -85.70869 | 2984 ft | 201 kts | 255° |
| 2026-05-03 22:26 | 38.34310 | -85.72587 | 2984 ft | 199 kts | 255° |
| 2026-05-03 22:26 | 38.33962 | -85.74302 | 2992 ft | 200 kts | 255° |
| 2026-05-03 22:26 | 38.33616 | -85.76039 | 2980 ft | 202 kts | 255° |
| 2026-05-03 22:27 | 38.33203 | -85.77729 | 2954 ft | 204 kts | 242° |
| 2026-05-03 22:27 | 38.32193 | -85.78984 | 2964 ft | 205 kts | 208° |
| 2026-05-03 22:27 | 38.30820 | -85.79287 | 2996 ft | 199 kts | 182° |
| 2026-05-03 22:27 | 38.29482 | -85.79275 | 2994 ft | 182 kts | 184° |
| 2026-05-03 22:28 | 38.28241 | -85.79154 | 3066 ft | 181 kts | 170° |
| 2026-05-03 22:28 | 38.27007 | -85.78803 | 2978 ft | 181 kts | 182° |
| 2026-05-03 22:28 | 38.25911 | -85.79337 | 3015 ft | 167 kts | 226° |
| 2026-05-03 22:28 | 38.25429 | -85.80687 | 3016 ft | 183 kts | 266° |
| 2026-05-03 22:29 | 38.25808 | -85.82406 | 3000 ft | 214 kts | 303° |
| 2026-05-03 22:29 | 38.26971 | -85.83599 | 2980 ft | 219 kts | 336° |
| 2026-05-03 22:29 | 38.28423 | -85.84109 | 3005 ft | 220 kts | 344° |
| 2026-05-03 22:29 | 38.29934 | -85.84538 | 2984 ft | 221 kts | 345° |
| 2026-05-03 22:30 | 38.31457 | -85.84778 | 2955 ft | 227 kts | 4° |
| 2026-05-03 22:30 | 38.32885 | -85.84041 | 2942 ft | 217 kts | 39° |
| 2026-05-03 22:30 | 38.33666 | -85.82524 | 2979 ft | 200 kts | 73° |
| 2026-05-03 22:30 | 38.33859 | -85.80832 | 2974 ft | 195 kts | 94° |
| 2026-05-03 22:31 | 38.33344 | -85.79305 | 2999 ft | 189 kts | 135° |
| 2026-05-03 22:31 | 38.32312 | -85.78268 | 3004 ft | 188 kts | 146° |
| 2026-05-03 22:31 | 38.31182 | -85.77453 | 2971 ft | 185 kts | 163° |
| 2026-05-03 22:31 | 38.29948 | -85.76973 | 2802 ft | 186 kts | 168° |
| 2026-05-03 22:32 | 38.28715 | -85.76555 | 2541 ft | 184 kts | 168° |
| 2026-05-03 22:32 | 38.27485 | -85.76135 | 2345 ft | 183 kts | 168° |
| 2026-05-03 22:32 | 38.26255 | -85.75714 | 2098 ft | 181 kts | 168° |
| 2026-05-03 22:32 | 38.25037 | -85.75298 | 1850 ft | 180 kts | 168° |
| 2026-05-03 22:33 | 38.23846 | -85.74888 | 1617 ft | 173 kts | 167° |
| 2026-05-03 22:33 | 38.22737 | -85.74507 | 1361 ft | 155 kts | 168° |
| 2026-05-03 22:33 | 38.21764 | -85.74175 | 1149 ft | 140 kts | 169° |
| 2026-05-03 22:33 | 38.20850 | -85.73861 | 998 ft | 137 kts | 170° |
| 2026-05-03 22:34 | 38.19946 | -85.73551 | 811 ft | 134 kts | 169° |
| 2026-05-03 22:34 | 38.19044 | -85.73243 | 620 ft | 133 kts | 171° |
| 2026-05-03 22:34 | 38.18165 | -85.72948 | 497 ft | 119 kts | 170° |
| 2026-05-03 22:34 | 38.17615 | -85.72758 | 488 ft | 51 kts | 165° |
| 2026-05-03 22:35 | 38.17538 | -85.72792 | 488 ft | 1 kts | 255° |
| 2026-05-03 22:35 | 38.17540 | -85.72818 | 484 ft | 0 kts | 289° |
| 2026-05-03 22:35 | 38.17573 | -85.72896 | 488 ft | 20 kts | 296° |
| 2026-05-03 22:36 | 38.17640 | -85.73097 | 484 ft | 27 kts | 292° |
| 2026-05-03 22:36 | 38.17710 | -85.73320 | 479 ft | 26 kts | 291° |
| 2026-05-03 22:36 | 38.17772 | -85.73528 | 481 ft | 24 kts | 291° |
| 2026-05-03 22:36 | 38.17836 | -85.73741 | 478 ft | 30 kts | 291° |
| 2026-05-03 22:37 | 38.17912 | -85.73988 | 481 ft | 29 kts | 290° |
| 2026-05-03 22:37 | 38.18003 | -85.74184 | 482 ft | 23 kts | 337° |
| 2026-05-03 22:37 | 38.18123 | -85.74169 | 485 ft | 16 kts | 63° |
| 2026-05-03 22:37 | 38.18179 | -85.74050 | 486 ft | 15 kts | 58° |
| 2026-05-03 22:38 | 38.18247 | -85.74004 | 485 ft | 0 kts | 13° |
| 2026-05-03 22:38 | 38.18270 | -85.73990 | 484 ft | 11 kts | 30° |
| 2026-05-03 22:38 | 38.18314 | -85.73949 | 482 ft | 0 kts | 37° |